Accueil
METAR-TAF:

METAR-TAF

Aéroports :

Aéroport international de N'Djaména

Ndjamena, Tchad

latitude: 12-08N, longitude: 015-02E, altitude: 295 m

Observation

Le bulletin a été fait il y a 1 heure et 3 minutes, à 12:00 UTC
Vent 10 kt de nord/nord-est, variant entre nord/nord-est et est/sud-est
Température 31°C
Humidité 14%
Pression 1013 hPa
Visibilité: 6000 m

METAR: FTTJ 201200Z 02010KT 020V110 6000 NSC 31/00 Q1013 NOSIG

Heure: 14:03 (13:03 UTC)

Prévision

Le bulletin a été fait il y a 2 heures et 3 minutes, à 11:00 UTC
Prévision valable du 20 à 12 UTC au 21 à 18 UTC
Vent 10 kt de nord/nord-est
Visibilité: 5000 m
poussière généralisée
Temporairement
du 20 à 15 UTC au 20 à 19 UTC
Visibilité: 2500 m
poussière généralisée
Temporairement
du 21 à 04 UTC au 21 à 08 UTC
Visibilité: 2500 m
poussière généralisée

TAF: FTTJ 201100Z 2012/2118 02010KT 5000 DU NSC TEMPO 2015/2019 2500 DU TEMPO 2104/2108 2500 DU

Observations et prévisions météorologiques de plus de 4000 aéroports (messages METAR et TAF).

Les stations disponibles sont représentées par des disques jaunes et rouges sur la carte.

Passer la souris dessus pour voir le nom de la station.

Cliquer dessus pour voir les observations et prévisions météorologiques.

Pour changer de carte: cliquez sur les boutons verts avec une croix noire pour zoomer, sur le bouton vert avec un tiret pour effectuer un zoom arrière, ou sur les flèches vertes pour les cartes adjacentes.


METAR-TAF: